createdAt,value
2022-10-25T02:43:30.550Z,93711.06
2022-10-25T02:49:34.875Z,93721.06
2022-10-25T02:52:38.364Z,93719.50
2022-10-25T02:55:42.053Z,93731.06
2022-10-25T02:58:46.524Z,93725.69
2022-10-25T03:01:50.189Z,93729.88
2022-10-25T03:04:53.321Z,93736.22
2022-10-25T03:07:58.819Z,93730.88
2022-10-25T03:11:03.450Z,93727.66
2022-10-25T03:14:10.037Z,93720.72
2022-10-25T03:17:14.418Z,93721.63
2022-10-25T03:20:17.452Z,93723.22
2022-10-25T03:23:21.312Z,93719.81
2022-10-25T03:26:24.826Z,93713.97
2022-10-25T03:29:27.974Z,93709.28
2022-10-25T03:32:32.719Z,93710.75
2022-10-25T03:35:35.779Z,93710.88
2022-10-25T03:38:39.169Z,93709.22
2022-10-25T03:41:42.697Z,93705.00
2022-10-25T03:44:46.405Z,93717.84
2022-10-25T03:47:49.991Z,93719.34
2022-10-25T03:50:54.873Z,93722.75
2022-10-25T03:53:58.402Z,93734.78
2022-10-25T03:57:02.802Z,93732.31
2022-10-25T04:00:08.324Z,93728.69
2022-10-25T04:03:15.375Z,93730.28
2022-10-25T04:06:18.822Z,93727.31
2022-10-25T04:09:22.311Z,93736.31
2022-10-25T04:12:26.356Z,93730.84
2022-10-25T04:15:32.079Z,93731.75
2022-10-25T04:18:35.983Z,93735.94
2022-10-25T04:21:44.596Z,93735.44
2022-10-25T04:24:49.040Z,93735.44
2022-10-25T04:27:52.877Z,93739.63
2022-10-25T04:30:55.934Z,93738.59
2022-10-25T04:34:00.026Z,93739.19
2022-10-25T04:37:04.118Z,93739.88
2022-10-25T04:40:07.754Z,93739.53
2022-10-25T04:43:10.865Z,93731.44
2022-10-25T04:46:17.099Z,93744.25
2022-10-25T04:49:20.975Z,93743.88
2022-10-25T04:52:26.457Z,93746.91
2022-10-25T04:55:31.999Z,93739.38
2022-10-25T04:58:36.555Z,93752.50
2022-10-25T05:01:41.380Z,93745.06
2022-10-25T05:04:46.111Z,93753.56
2022-10-25T05:07:51.299Z,93758.00
2022-10-25T05:10:58.533Z,93747.13
2022-10-25T06:02:10.439Z,93773.00
2022-10-25T06:05:14.325Z,93782.41
2022-10-25T06:08:17.378Z,93787.63
2022-10-25T06:11:20.780Z,93780.66
2022-10-25T06:14:23.790Z,93777.97
2022-10-25T06:17:27.488Z,93775.78
2022-10-25T06:20:31.213Z,93770.06
2022-10-25T06:23:38.331Z,93782.66
2022-10-25T06:26:41.278Z,93775.84
2022-10-25T06:29:44.704Z,93782.91
2022-10-25T06:32:48.327Z,93792.94
2022-10-25T06:35:56.846Z,93784.16
2022-10-25T06:39:05.689Z,93783.41
2022-10-25T06:42:10.715Z,93777.81
2022-10-25T06:45:14.376Z,93781.69
2022-10-25T06:48:17.990Z,93775.31
2022-10-25T06:51:22.686Z,93768.13
2022-10-25T06:54:27.219Z,93773.69
2022-10-25T06:57:30.941Z,93765.00
2022-10-25T07:00:34.604Z,93765.66
2022-10-25T07:03:38.736Z,93793.72
2022-10-25T07:06:42.203Z,93797.75
2022-10-25T07:09:46.282Z,93792.09
2022-10-25T07:12:49.922Z,93804.84
2022-10-25T07:15:53.829Z,93804.63
2022-10-25T07:19:02.097Z,93807.84
2022-10-25T07:22:05.705Z,93805.06
2022-10-25T07:25:10.042Z,93803.53
2022-10-25T07:28:14.459Z,93804.69
2022-10-25T07:31:21.029Z,93803.97
2022-10-25T07:34:24.388Z,93806.31
2022-10-25T07:37:28.153Z,93817.41
2022-10-25T07:40:32.232Z,93835.63
2022-10-25T07:43:36.158Z,93834.81
2022-10-25T07:46:40.181Z,93840.97
2022-10-25T07:49:43.841Z,93851.34
2022-10-25T07:52:48.252Z,93843.59
2022-10-25T07:55:52.963Z,93851.00
2022-10-25T07:58:57.173Z,93843.72
2022-10-25T08:02:00.855Z,93841.44
2022-10-25T08:05:05.267Z,93824.56
2022-10-25T08:08:09.620Z,93830.06
2022-10-25T08:11:13.775Z,93832.13
2022-10-25T08:14:17.458Z,93837.28
2022-10-25T08:17:21.434Z,93845.63
2022-10-25T08:20:37.705Z,93840.28
2022-10-25T08:23:48.871Z,93842.03
2022-10-25T08:26:52.686Z,93850.13
2022-10-25T08:29:57.249Z,93840.72
2022-10-25T08:33:01.099Z,93839.41
2022-10-25T08:36:05.713Z,93841.69
2022-10-25T08:39:09.492Z,93854.50
2022-10-25T08:42:44.952Z,93855.78
2022-10-25T08:45:54.020Z,93852.28
2022-10-25T08:49:19.714Z,93849.84
2022-10-25T08:52:39.181Z,93855.00
2022-10-25T08:55:58.706Z,93847.38
2022-10-25T08:59:08.233Z,93850.91
2022-10-25T09:02:43.603Z,93846.09
2022-10-25T09:06:24.338Z,93853.47
2022-10-25T09:09:56.567Z,93855.47
2022-10-25T09:13:31.724Z,93862.72
2022-10-25T09:16:58.384Z,93870.75
2022-10-25T09:20:19.534Z,93867.69
2022-10-25T09:23:44.927Z,93878.56
2022-10-25T09:27:15.242Z,93877.88
2022-10-25T09:30:19.310Z,93878.50
2022-10-25T09:33:29.501Z,93877.19
2022-10-25T09:36:41.578Z,93885.94
2022-10-25T09:39:54.267Z,93889.97
2022-10-25T09:43:17.674Z,93900.66
2022-10-25T09:46:41.137Z,93897.22
2022-10-25T09:50:11.195Z,93900.16
2022-10-25T09:53:19.055Z,93910.53
2022-10-25T09:56:26.247Z,93905.66
2022-10-25T09:59:29.581Z,93904.44
2022-10-25T10:02:33.384Z,93915.94
2022-10-25T10:05:38.575Z,93915.84
2022-10-25T10:08:48.366Z,93919.56
2022-10-25T10:11:55.222Z,93919.44
2022-10-25T10:15:04.146Z,93930.34
2022-10-25T10:18:30.787Z,93939.41
2022-10-25T10:21:36.540Z,93937.56
2022-10-25T10:24:44.922Z,93944.44
2022-10-25T10:27:49.894Z,93952.59
2022-10-25T10:30:57.162Z,93968.88
2022-10-25T10:34:01.126Z,93969.69
2022-10-25T10:37:17.989Z,93980.81
2022-10-25T10:40:22.118Z,93992.31
2022-10-25T10:43:33.045Z,93998.13
2022-10-25T10:46:37.177Z,93993.03
2022-10-25T10:49:42.787Z,94001.28
2022-10-25T10:52:48.061Z,94016.97
2022-10-25T10:55:57.360Z,94024.00
2022-10-25T10:59:00.871Z,94028.41
2022-10-25T11:02:19.375Z,94026.91
2022-10-25T11:05:30.151Z,94023.66
2022-10-25T11:08:34.029Z,94039.84
2022-10-25T11:11:37.711Z,94048.38
2022-10-25T11:14:41.652Z,94053.28
2022-10-25T11:17:54.867Z,94058.59
2022-10-25T11:21:11.605Z,94061.22
2022-10-25T11:24:42.317Z,94068.38
2022-10-25T11:28:03.454Z,94072.53
2022-10-25T11:31:21.168Z,94081.00
2022-10-25T11:34:46.213Z,94085.22
2022-10-25T11:38:10.436Z,94089.56
2022-10-25T11:41:30.305Z,94098.56
2022-10-25T11:45:03.709Z,94091.78
2022-10-25T11:48:50.587Z,94094.03
2022-10-25T11:52:31.192Z,94098.56
2022-10-25T11:55:53.711Z,94100.03
2022-10-25T11:59:12.792Z,94107.25
2022-10-25T12:02:36.409Z,94113.03
2022-10-25T12:05:46.147Z,94118.59
2022-10-25T12:09:25.113Z,94112.38
2022-10-25T12:12:50.124Z,94109.59
2022-10-25T12:15:57.449Z,94117.09
2022-10-25T12:19:01.108Z,94120.41
2022-10-25T12:22:18.515Z,94116.38
2022-10-25T12:25:24.869Z,94119.72
2022-10-25T12:28:38.654Z,94132.31
2022-10-25T12:31:48.664Z,94133.56
2022-10-25T12:34:56.279Z,94134.50
2022-10-25T12:38:12.516Z,94145.03
2022-10-25T12:41:41.344Z,94140.75
2022-10-25T12:45:18.738Z,94156.28
2022-10-25T12:49:00.563Z,94164.59
2022-10-25T12:52:22.686Z,94154.19
2022-10-25T12:56:04.657Z,94167.09
2022-10-25T12:59:29.503Z,94164.72
2022-10-25T13:02:50.934Z,94174.41
2022-10-25T13:06:10.193Z,94178.44
2022-10-25T13:09:24.755Z,94187.03
2022-10-25T13:12:32.654Z,94182.19
2022-10-25T13:15:45.915Z,94192.56
2022-10-25T13:19:09.449Z,94189.63
2022-10-25T13:22:35.622Z,94194.09
2022-10-25T13:25:48.603Z,94196.44
2022-10-25T13:28:58.497Z,94206.41
2022-10-25T13:32:22.228Z,94205.69
2022-10-25T13:35:28.593Z,94207.28
2022-10-25T13:38:39.669Z,94217.97
2022-10-25T13:41:47.011Z,94221.53
2022-10-25T13:44:57.408Z,94227.34
2022-10-25T13:48:26.093Z,94222.50
2022-10-25T13:51:31.808Z,94233.69
2022-10-25T13:54:51.021Z,94234.25
2022-10-25T13:57:58.902Z,94232.13
2022-10-25T14:01:18.151Z,94234.59
2022-10-25T14:04:33.703Z,94230.72
2022-10-25T14:07:45.706Z,94243.84
2022-10-25T14:10:51.237Z,94242.84
2022-10-25T14:14:31.740Z,94257.81
2022-10-25T14:17:42.363Z,94257.41
2022-10-25T14:20:49.133Z,94271.13
2022-10-25T14:23:53.960Z,94278.59
2022-10-25T14:27:00.669Z,94280.78
2022-10-25T14:30:30.278Z,94282.72
2022-10-25T14:33:39.380Z,94288.78
2022-10-25T14:36:50.073Z,94291.00
2022-10-25T14:39:54.054Z,94298.06
2022-10-25T14:43:13.561Z,94293.84
2022-10-25T14:46:20.191Z,94298.94
2022-10-25T14:49:24.133Z,94302.41
2022-10-25T14:52:31.177Z,94306.66
2022-10-25T14:55:35.504Z,94305.91
2022-10-25T14:58:45.042Z,94313.63
2022-10-25T15:01:59.971Z,94316.66
2022-10-25T15:05:05.738Z,94314.63
2022-10-25T15:08:24.815Z,94328.47
2022-10-25T15:11:29.019Z,94334.72
2022-10-25T15:14:33.105Z,94330.34
2022-10-25T15:17:37.422Z,94327.56
2022-10-25T15:20:42.248Z,94330.34
2022-10-25T15:24:24.744Z,94343.16
2022-10-25T15:27:35.797Z,94351.19
2022-10-25T15:30:51.489Z,94347.69
2022-10-25T15:34:04.409Z,94345.63
2022-10-25T15:37:15.023Z,94340.72
2022-10-25T15:40:18.295Z,94342.34
2022-10-25T15:43:22.356Z,94340.72
2022-10-25T15:46:34.320Z,94341.06
2022-10-25T15:49:38.235Z,94353.69
2022-10-25T15:52:42.082Z,94358.44
2022-10-25T15:55:45.655Z,94360.78
2022-10-25T15:58:49.132Z,94362.16
2022-10-25T16:01:55.966Z,94366.97
2022-10-25T16:04:58.993Z,94378.75
2022-10-25T16:08:03.138Z,94366.63
2022-10-25T16:11:06.374Z,94371.19
2022-10-25T16:14:20.860Z,94373.09
2022-10-25T16:17:24.473Z,94372.41
2022-10-25T16:20:30.741Z,94374.03
2022-10-25T16:23:34.495Z,94388.22
2022-10-25T16:26:38.915Z,94394.00
2022-10-25T16:29:42.202Z,94389.50
2022-10-25T16:32:46.666Z,94390.03
2022-10-25T16:35:50.646Z,94400.25
2022-10-25T16:38:54.731Z,94391.56
2022-10-25T16:41:58.904Z,94404.38
2022-10-25T16:45:04.753Z,94401.59
2022-10-25T16:48:08.529Z,94411.03
2022-10-25T16:51:16.499Z,94413.28
2022-10-25T16:54:23.998Z,94406.19
2022-10-25T16:57:28.549Z,94413.00
2022-10-25T17:00:36.255Z,94413.22
2022-10-25T17:03:41.005Z,94411.28
2022-10-25T17:06:44.685Z,94410.06
2022-10-25T17:09:48.430Z,94417.75
2022-10-25T17:12:54.792Z,94415.47
2022-10-25T17:15:58.154Z,94423.16
2022-10-25T17:19:03.609Z,94424.56
2022-10-25T17:22:07.777Z,94431.03
2022-10-25T17:25:12.033Z,94436.47
2022-10-25T17:28:16.075Z,94444.69
2022-10-25T17:31:19.825Z,94445.78
2022-10-25T17:34:24.125Z,94441.41
2022-10-25T17:37:28.339Z,94442.44
2022-10-25T17:40:32.516Z,94449.44
2022-10-25T17:43:37.265Z,94456.78
2022-10-25T17:46:40.289Z,94453.78
2022-10-25T17:49:44.011Z,94464.28
2022-10-25T17:52:47.938Z,94462.88
2022-10-25T17:55:51.345Z,94469.03
2022-10-25T17:58:56.618Z,94474.44
2022-10-25T18:02:00.384Z,94472.38
2022-10-25T18:08:27.204Z,94472.41
2022-10-25T18:11:30.875Z,94470.13
2022-10-25T18:14:34.477Z,94469.94
2022-10-25T18:17:38.066Z,94480.22
2022-10-25T18:20:41.929Z,94469.75
2022-10-25T18:23:46.069Z,94480.41
2022-10-25T18:26:49.742Z,94478.66
2022-10-25T18:29:53.057Z,94487.06
2022-10-25T18:32:57.030Z,94478.34
2022-10-25T18:36:06.797Z,94470.66
2022-10-25T18:39:09.835Z,94464.53
2022-10-25T18:42:13.968Z,94467.16
2022-10-25T18:45:18.007Z,94472.75
2022-10-25T18:48:22.149Z,94477.66
2022-10-25T18:51:30.037Z,94473.47
2022-10-25T18:54:33.403Z,94472.03
2022-10-25T18:57:36.803Z,94472.78
2022-10-25T19:00:40.829Z,94474.00
2022-10-25T19:03:45.373Z,94477.09
2022-10-25T19:06:49.460Z,94473.59
2022-10-25T19:09:52.483Z,94491.25
2022-10-25T19:12:55.828Z,94480.59
2022-10-25T19:16:00.187Z,94482.19
2022-10-25T19:19:07.865Z,94485.31
2022-10-25T19:22:11.509Z,94483.75
2022-10-25T19:25:14.655Z,94491.25
2022-10-25T19:28:18.367Z,94497.72
2022-10-25T19:31:21.659Z,94494.75
2022-10-25T19:34:25.390Z,94497.38
2022-10-25T19:37:29.357Z,94502.94
2022-10-25T19:40:32.776Z,94507.69
2022-10-25T19:43:37.112Z,94509.06
2022-10-25T19:46:40.703Z,94508.38
2022-10-25T19:49:44.890Z,94509.06
2022-10-25T19:52:47.860Z,94508.03
2022-10-25T19:56:02.351Z,94506.63
2022-10-25T19:59:07.142Z,94515.19
2022-10-25T20:02:11.131Z,94517.81
2022-10-25T20:05:15.015Z,94519.03
2022-10-25T20:08:19.016Z,94522.66
2022-10-25T20:11:24.823Z,94525.31
2022-10-25T20:14:31.611Z,94524.25
2022-10-25T20:17:35.158Z,94523.38
2022-10-25T20:20:39.520Z,94526.34
2022-10-25T20:23:49.693Z,94527.38
2022-10-25T20:26:54.137Z,94531.06
2022-10-25T20:29:57.804Z,94538.38
2022-10-25T20:33:01.046Z,94541.00
2022-10-25T20:36:07.981Z,94537.81
2022-10-25T20:39:13.689Z,94551.75
2022-10-25T20:42:18.185Z,94552.13
2022-10-25T20:45:21.813Z,94547.75
2022-10-25T20:48:24.846Z,94554.69
2022-10-25T20:51:28.565Z,94557.50
2022-10-25T20:54:31.957Z,94560.81
2022-10-25T20:57:38.176Z,94565.00
2022-10-25T21:00:41.274Z,94561.25
2022-10-25T21:03:45.302Z,94562.50
2022-10-25T21:06:49.752Z,94559.16
2022-10-25T21:09:53.433Z,94565.25
2022-10-25T21:12:56.339Z,94574.56
2022-10-25T21:16:04.837Z,94565.00
2022-10-25T21:19:08.550Z,94576.34
2022-10-25T21:22:12.214Z,94575.25
2022-10-25T21:25:16.248Z,94586.94
2022-10-25T21:28:20.241Z,94590.75
2022-10-25T21:31:23.229Z,94586.69
2022-10-25T21:34:26.491Z,94587.75
2022-10-25T21:37:30.367Z,94578.66
2022-10-25T21:40:33.769Z,94593.31
2022-10-25T21:43:41.613Z,94590.84
2022-10-25T21:46:44.902Z,94588.56
2022-10-25T21:49:47.753Z,94594.00
2022-10-25T21:52:53.875Z,94596.97
2022-10-25T21:56:16.410Z,94595.06
2022-10-25T21:59:20.796Z,94601.47
2022-10-25T22:02:23.934Z,94597.97
2022-10-25T22:05:27.043Z,94607.56
2022-10-25T22:08:30.678Z,94612.53
2022-10-25T22:11:36.904Z,94620.00
2022-10-25T22:14:40.443Z,94612.50
2022-10-25T22:17:43.827Z,94618.25
2022-10-25T22:20:54.807Z,94616.16
2022-10-25T22:23:58.192Z,94624.50
2022-10-25T22:27:01.150Z,94622.72
2022-10-25T22:30:05.035Z,94631.59
2022-10-25T22:33:08.650Z,94629.31
2022-10-25T22:36:16.591Z,94635.00
2022-10-25T22:39:20.259Z,94634.66
2022-10-25T22:42:23.321Z,94637.25
2022-10-25T22:45:26.364Z,94637.97
2022-10-25T22:48:35.517Z,94639.16
2022-10-25T22:51:39.806Z,94641.78
2022-10-25T22:54:43.195Z,94640.91
2022-10-25T22:57:46.859Z,94650.13
2022-10-25T23:00:51.382Z,94654.84
2022-10-25T23:03:56.888Z,94655.47
2022-10-25T23:07:00.514Z,94653.97
2022-10-25T23:10:04.433Z,94658.28
2022-10-25T23:13:08.616Z,94661.22
2022-10-25T23:16:13.664Z,94662.13
2022-10-25T23:19:17.426Z,94668.25
2022-10-25T23:22:21.120Z,94668.63
2022-10-25T23:25:24.456Z,94671.59
2022-10-25T23:28:31.082Z,94672.53
2022-10-25T23:31:34.796Z,94674.13
2022-10-25T23:34:39.682Z,94681.97
2022-10-25T23:37:43.447Z,94687.44
2022-10-25T23:40:48.124Z,94691.53
2022-10-25T23:43:52.024Z,94690.19
2022-10-25T23:46:55.924Z,94691.63
2022-10-25T23:49:59.670Z,94694.25
2022-10-25T23:53:03.737Z,94701.75
